Time;durP1;ratioP1;P1;durP2;ratioP2;P2;SDS_P1;SDS_P2;PMS_P1;PMS_P2;Temp;Humidity;BMP_temperature;BMP_pressure;BME280_temperature;BME280_humidity;BME280_pressure;Samples;Min_cycle;Max_cycle;Signal;HPM_P1;HPM_P2
2022/05/03 00:00:12;;;;;;;;;18.75;17.25;;;;;12.24;58.98;102001.31;5069479;28;10624;-61
2022/05/03 00:03:08;;;;;;;;;25.75;19.50;;;;;12.23;58.71;101998.75;5070777;28;10548;-61
2022/05/03 00:06:04;;;;;;;;;25.00;18.25;;;;;12.19;59.53;101997.44;5051852;28;10775;-62
2022/05/03 00:08:43;;;;;;;;;17.50;13.75;;;;;12.17;59.62;101989.53;5052609;28;10628;-62
2022/05/03 00:11:21;;;;;;;;;21.50;21.25;;;;;12.17;59.06;101983.28;5064958;28;10636;-62
2022/05/03 00:14:12;;;;;;;;;19.25;19.25;;;;;12.15;58.94;101991.53;5064261;28;10769;-61
2022/05/03 00:16:39;;;;;;;;;18.00;14.50;;;;;12.16;59.76;102000.50;5068581;28;10712;-61
2022/05/03 00:19:06;;;;;;;;;19.00;16.00;;;;;12.14;59.74;101989.88;5064270;28;10364;-62
2022/05/03 00:21:34;;;;;;;;;22.50;19.25;;;;;12.11;59.35;101985.69;5071670;28;10415;-61
2022/05/03 00:24:02;;;;;;;;;17.75;14.25;;;;;12.09;59.46;101992.28;5071483;28;10589;-62
2022/05/03 00:26:30;;;;;;;;;17.50;16.50;;;;;12.09;59.71;101986.88;5069113;28;10385;-61
2022/05/03 00:28:58;;;;;;;;;18.00;16.75;;;;;12.07;59.58;101991.59;5070534;28;10689;-63
2022/05/03 00:31:27;;;;;;;;;15.00;15.00;;;;;12.07;59.96;101991.59;5070522;28;10606;-60
2022/05/03 00:33:55;;;;;;;;;14.25;14.25;;;;;12.05;59.75;101990.94;5051858;28;10603;-63
2022/05/03 00:36:23;;;;;;;;;20.50;18.50;;;;;12.04;59.45;101989.25;5051447;28;10536;-64
2022/05/03 00:38:52;;;;;;;;;17.75;17.25;;;;;12.01;59.97;101990.44;5067372;28;10759;-66
2022/05/03 00:41:43;;;;;;;;;16.50;15.50;;;;;11.98;59.43;101985.38;5061819;28;10673;-62
2022/05/03 00:47:10;;;;;;;;;15.75;15.75;;;;;11.91;60.06;101983.56;5068934;28;10666;-63
2022/05/03 00:50:05;;;;;;;;;18.75;16.25;;;;;11.87;59.89;101988.50;5059174;28;10773;-66
2022/05/03 00:52:55;;;;;;;;;21.50;19.25;;;;;11.83;59.76;101982.59;5067554;28;10772;-63
2022/05/03 00:55:34;;;;;;;;;19.50;18.00;;;;;11.80;59.99;101977.53;5070788;28;10630;-64
2022/05/03 00:58:15;;;;;;;;;19.00;15.00;;;;;11.77;60.63;101974.31;5050749;28;10610;-62
2022/05/03 01:00:59;;;;;;;;;24.50;21.00;;;;;11.74;60.10;101980.91;5059409;28;10748;-65
2022/05/03 01:03:39;;;;;;;;;16.50;15.75;;;;;11.71;60.09;101975.88;5085737;28;10726;-65
2022/05/03 01:06:24;;;;;;;;;24.00;19.50;;;;;11.70;60.21;101978.72;5056427;28;11035;-62
2022/05/03 01:09:03;;;;;;;;;19.75;19.75;;;;;11.67;60.29;101974.53;5064503;28;10781;-62
2022/05/03 01:11:53;;;;;;;;;18.25;18.25;;;;;11.64;60.68;101977.56;5070610;28;10920;-61
2022/05/03 01:14:52;;;;;;;;;24.25;20.25;;;;;11.60;60.72;101984.34;5069293;28;10865;-62
2022/05/03 01:17:35;;;;;;;;;15.00;14.75;;;;;11.58;60.84;101983.66;5050349;28;10783;-65
2022/05/03 01:20:06;;;;;;;;;21.00;19.50;;;;;11.55;60.64;101976.75;5070318;28;10954;-61
2022/05/03 01:23:18;;;;;;;;;20.75;17.25;;;;;11.53;60.86;101976.06;5057779;28;10697;-65
2022/05/03 01:25:45;;;;;;;;;18.75;17.25;;;;;11.49;60.99;101968.50;5017603;28;10779;-60
2022/05/03 01:28:29;;;;;;;;;17.25;15.75;;;;;11.46;60.77;101975.06;5058219;28;12821;-61
2022/05/03 01:31:07;;;;;;;;;22.75;19.75;;;;;11.42;61.28;101968.34;5069547;28;10667;-62
2022/05/03 01:33:38;;;;;;;;;17.00;15.25;;;;;11.40;61.04;101965.00;5065694;28;10881;-63
2022/05/03 01:36:08;;;;;;;;;20.00;16.00;;;;;11.39;60.55;101971.41;5062422;28;11021;-63
2022/05/03 01:38:47;;;;;;;;;24.75;23.25;;;;;11.36;61.17;101969.88;5074987;28;10632;-63
2022/05/03 01:41:37;;;;;;;;;17.50;17.50;;;;;11.37;61.21;101974.25;5063395;28;11088;-64
2022/05/03 01:44:41;;;;;;;;;21.75;16.50;;;;;11.36;61.11;101979.84;5043557;28;10808;-64
2022/05/03 01:47:30;;;;;;;;;17.00;17.00;;;;;11.34;60.87;101979.16;5052179;28;10656;-65
2022/05/03 01:50:19;;;;;;;;;19.25;18.50;;;;;11.31;60.96;101977.66;5064841;28;10785;-64
2022/05/03 01:52:54;;;;;;;;;20.00;19.00;;;;;11.30;61.81;101980.50;5066853;28;10804;-64
2022/05/03 01:55:49;;;;;;;;;21.00;18.00;;;;;11.31;61.30;101976.81;5063029;28;10994;-64
2022/05/03 01:58:44;;;;;;;;;17.25;15.75;;;;;11.31;61.37;101969.56;5067763;28;11008;-64
2022/05/03 02:01:25;;;;;;;;;19.00;17.75;;;;;11.30;61.14;101967.03;5061768;28;11607;-64
2022/05/03 02:04:02;;;;;;;;;22.50;21.50;;;;;11.26;61.55;101971.06;5070115;28;10777;-63
2022/05/03 02:07:00;;;;;;;;;19.00;19.00;;;;;11.23;61.50;101968.75;5071324;28;10868;-64
2022/05/03 02:09:53;;;;;;;;;21.00;18.50;;;;;11.21;61.24;101968.91;5066070;28;10782;-64
2022/05/03 02:12:21;;;;;;;;;21.25;21.25;;;;;11.17;60.98;101970.25;5076941;28;11649;-64
2022/05/03 02:14:53;;;;;;;;;23.25;19.00;;;;;11.16;61.52;101957.81;5069774;28;10971;-63
2022/05/03 02:18:03;;;;;;;;;23.75;21.00;;;;;11.14;61.38;101965.22;5067004;28;10930;-62
2022/05/03 02:21:00;;;;;;;;;20.00;17.25;;;;;11.11;61.34;101960.16;5058886;28;11016;-62
2022/05/03 02:23:53;;;;;;;;;21.25;17.25;;;;;11.08;61.57;101958.66;5049893;28;10991;-65
2022/05/03 02:26:25;;;;;;;;;22.75;19.75;;;;;11.06;61.72;101963.38;5049557;28;11042;-65
2022/05/03 02:29:03;;;;;;;;;19.75;17.25;;;;;11.04;61.06;101961.84;5063486;28;11765;-61
2022/05/03 02:31:40;;;;;;;;;22.25;21.25;;;;;11.03;61.16;101962.88;5067762;28;10938;-64
2022/05/03 02:34:35;;;;;;;;;25.75;20.50;;;;;11.00;62.07;101958.66;5055085;28;11127;-64
2022/05/03 02:37:12;;;;;;;;;22.00;21.75;;;;;10.98;61.57;101962.53;5053103;28;10861;-65
2022/05/03 02:39:54;;;;;;;;;21.50;20.75;;;;;10.96;61.28;101962.69;5058923;28;11091;-62
2022/05/03 02:42:21;;;;;;;;;31.75;23.00;;;;;10.93;61.33;101957.63;5069182;28;11233;-64
2022/05/03 02:44:51;;;;;;;;;23.75;21.25;;;;;10.89;62.00;101956.28;5068435;28;10869;-62
2022/05/03 02:47:29;;;;;;;;;17.25;17.25;;;;;10.88;61.93;101954.63;5067188;28;11096;-65
2022/05/03 02:50:04;;;;;;;;;24.25;20.50;;;;;10.85;61.30;101953.09;5060177;28;11064;-65
2022/05/03 02:52:40;;;;;;;;;26.25;23.00;;;;;10.83;62.02;101947.06;5068829;28;11158;-63
2022/05/03 02:55:22;;;;;;;;;25.75;20.75;;;;;10.81;62.26;101953.59;5061305;28;11091;-63
2022/05/03 02:58:05;;;;;;;;;21.25;17.25;;;;;10.80;62.12;101949.25;5069238;28;11186;-65
2022/05/03 03:04:00;;;;;;;;;22.50;21.00;;;;;10.72;61.82;101952.78;5049556;28;11037;-64
2022/05/03 03:06:31;;;;;;;;;20.00;17.00;;;;;10.69;62.08;101947.72;5068891;28;11022;-65
2022/05/03 03:09:00;;;;;;;;;19.75;17.50;;;;;10.69;62.48;101949.56;5069566;28;11116;-61
2022/05/03 03:11:48;;;;;;;;;29.00;24.00;;;;;10.68;61.84;101954.13;5065477;28;11868;-64
2022/05/03 03:14:26;;;;;;;;;19.75;17.75;;;;;10.68;62.31;101948.72;5067434;28;11495;-64
2022/05/03 03:17:07;;;;;;;;;21.50;20.25;;;;;10.67;62.48;101952.44;5063769;28;11157;-65
2022/05/03 03:20:02;;;;;;;;;22.75;20.25;;;;;10.67;62.18;101951.59;5071846;28;11042;-64
2022/05/03 03:22:30;;;;;;;;;24.50;23.25;;;;;10.65;62.14;101946.38;5067414;28;11728;-63
2022/05/03 03:24:58;;;;;;;;;28.50;26.00;;;;;10.63;62.28;101945.69;5068293;28;11164;-65
2022/05/03 03:27:27;;;;;;;;;24.00;22.00;;;;;10.63;61.98;101945.69;5072667;28;11087;-63
2022/05/03 03:29:56;;;;;;;;;23.00;19.00;;;;;10.62;62.74;101944.03;5092719;28;10972;-65
2022/05/03 03:32:25;;;;;;;;;22.00;22.00;;;;;10.63;62.72;101943.00;5092570;28;11101;-62
2022/05/03 03:34:56;;;;;;;;;22.25;19.00;;;;;10.61;62.64;101945.88;5082277;28;11204;-65
2022/05/03 03:37:27;;;;;;;;;29.00;24.25;;;;;10.60;62.73;101943.34;5064502;28;11284;-65
2022/05/03 03:39:54;;;;;;;;;23.00;18.75;;;;;10.57;62.44;101936.47;5071285;28;11323;-64
2022/05/03 03:42:21;;;;;;;;;26.50;23.00;;;;;10.58;62.46;101953.44;5072161;28;10957;-64
2022/05/03 03:44:47;;;;;;;;;22.50;20.00;;;;;10.55;62.25;101948.38;5072160;28;11114;-65
2022/05/03 03:47:15;;;;;;;;;24.00;24.00;;;;;10.52;62.54;101944.16;5071144;28;11090;-63
2022/05/03 03:49:42;;;;;;;;;23.25;19.50;;;;;10.51;62.81;101939.81;5072148;28;11061;-64
2022/05/03 03:52:10;;;;;;;;;27.25;23.50;;;;;10.54;62.40;101947.56;5060538;28;11203;-65
2022/05/03 03:54:40;;;;;;;;;23.50;20.50;;;;;10.55;62.83;101946.53;5071938;28;11268;-64
2022/05/03 03:57:07;;;;;;;;;21.50;19.25;;;;;10.57;63.05;101939.16;5070842;28;11266;-62
2022/05/03 03:59:37;;;;;;;;;27.25;23.75;;;;;10.61;62.20;101955.78;5066145;28;11093;-64
2022/05/03 04:02:04;;;;;;;;;20.00;18.50;;;;;10.64;63.13;101939.31;5072501;28;11201;-64
2022/05/03 04:04:35;;;;;;;;;20.50;20.25;;;;;10.68;62.49;101945.19;5072218;28;11191;-64
2022/05/03 04:07:03;;;;;;;;;20.00;16.25;;;;;10.72;62.44;101946.53;5071915;28;10992;-65
2022/05/03 04:09:30;;;;;;;;;27.00;24.75;;;;;10.73;62.78;101946.38;5071048;28;10962;-62
2022/05/03 04:11:59;;;;;;;;;27.75;24.25;;;;;10.74;61.98;101942.69;5070531;28;11164;-64
2022/05/03 04:14:27;;;;;;;;;28.75;22.75;;;;;10.76;62.84;101945.19;5067632;28;11162;-64
2022/05/03 04:16:53;;;;;;;;;30.25;22.75;;;;;10.75;62.76;101935.44;5072110;28;11044;-63
2022/05/03 04:19:21;;;;;;;;;19.75;18.00;;;;;10.73;62.86;101935.59;5071207;28;11055;-64
2022/05/03 04:21:48;;;;;;;;;27.25;24.00;;;;;10.74;62.27;101941.84;5069355;28;10829;-64
2022/05/03 04:24:14;;;;;;;;;24.00;24.00;;;;;10.73;62.92;101934.75;5072678;28;11191;-64
2022/05/03 04:26:41;;;;;;;;;26.75;22.75;;;;;10.73;62.53;101940.97;5072975;28;11183;-63
2022/05/03 04:29:08;;;;;;;;;21.25;18.50;;;;;10.75;63.06;101943.53;5067775;28;11055;-62
2022/05/03 04:31:35;;;;;;;;;25.75;22.25;;;;;10.76;62.57;101943.34;5065356;28;10790;-62
2022/05/03 04:34:03;;;;;;;;;25.25;20.50;;;;;10.79;63.43;101936.78;5052961;28;11046;-63
2022/05/03 04:36:32;;;;;;;;;24.50;24.50;;;;;10.81;63.12;101945.53;5055233;28;10953;-64
2022/05/03 04:39:00;;;;;;;;;25.25;20.25;;;;;10.82;62.82;101934.59;5059837;28;11193;-64
2022/05/03 04:41:26;;;;;;;;;24.25;21.25;;;;;10.88;63.03;101942.00;5064250;28;11117;-63
2022/05/03 04:43:53;;;;;;;;;25.25;20.75;;;;;10.94;63.29;101947.69;5064368;28;10942;-64
2022/05/03 04:46:20;;;;;;;;;25.75;22.50;;;;;10.97;63.06;101940.13;5071068;28;10919;-63
2022/05/03 04:48:47;;;;;;;;;22.50;22.50;;;;;11.00;63.69;101941.66;5065818;28;10960;-64
2022/05/03 04:51:17;;;;;;;;;31.75;27.25;;;;;11.03;63.98;101942.16;5071890;28;11885;-63
2022/05/03 04:53:44;;;;;;;;;29.50;25.75;;;;;11.06;63.20;101947.22;5089248;28;11093;-60
2022/05/03 04:56:22;;;;;;;;;36.50;28.25;;;;;11.08;63.45;101945.16;5091751;28;11277;-62
2022/05/03 04:58:50;;;;;;;;;30.50;28.00;;;;;11.13;63.79;101948.19;5070429;28;11198;-61
2022/05/03 05:01:17;;;;;;;;;27.00;26.25;;;;;11.16;63.98;101947.03;5071356;28;11172;-61
2022/05/03 05:03:44;;;;;;;;;32.50;30.75;;;;;11.19;63.51;101949.38;5071277;28;10954;-64
2022/05/03 05:06:11;;;;;;;;;27.00;26.50;;;;;11.22;64.03;101951.75;5060057;28;12202;-64
2022/05/03 05:08:39;;;;;;;;;32.00;29.00;;;;;11.24;63.93;101952.41;5060189;28;11181;-64
2022/05/03 05:11:06;;;;;;;;;30.50;29.00;;;;;11.26;64.38;101949.50;5068725;28;11178;-64
2022/05/03 05:13:35;;;;;;;;;40.75;33.50;;;;;11.28;63.74;101950.19;5052407;28;11102;-64
2022/05/03 05:16:03;;;;;;;;;43.25;37.00;;;;;11.29;64.49;101957.25;5068700;28;11299;-65
2022/05/03 05:18:29;;;;;;;;;41.75;34.50;;;;;11.29;64.82;101958.09;5068714;28;11516;-64
2022/05/03 05:20:56;;;;;;;;;33.75;32.00;;;;;11.33;65.20;101966.69;5070846;28;11512;-65
2022/05/03 05:23:26;;;;;;;;;42.75;32.50;;;;;11.37;65.08;101963.47;5070935;28;11121;-65
2022/05/03 05:25:54;;;;;;;;;43.00;37.00;;;;;11.42;65.20;101967.50;5071214;28;11187;-64
2022/05/03 05:28:22;;;;;;;;;30.00;29.00;;;;;11.46;65.14;101964.28;5061843;28;11568;-64
2022/05/03 05:30:51;;;;;;;;;30.75;29.25;;;;;11.51;65.52;101978.13;5072118;28;11129;-65
2022/05/03 05:33:20;;;;;;;;;34.50;31.25;;;;;11.52;65.14;101969.00;5070747;28;11193;-65
2022/05/03 05:35:48;;;;;;;;;35.25;31.50;;;;;11.58;64.89;101973.69;5070762;28;11245;-65
2022/05/03 05:38:16;;;;;;;;;44.25;37.25;;;;;11.60;65.65;101974.38;5068488;28;11321;-63
2022/05/03 05:40:44;;;;;;;;;37.00;31.25;;;;;11.64;66.00;101977.56;5064358;28;11485;-64
2022/05/03 05:43:11;;;;;;;;;51.75;44.00;;;;;11.67;65.88;101973.66;5061963;28;11146;-63
2022/05/03 05:45:38;;;;;;;;;42.50;36.75;;;;;11.67;65.23;101966.44;5060592;28;11536;-63
2022/05/03 05:48:05;;;;;;;;;47.25;40.25;;;;;11.66;65.30;101975.53;5068215;28;11121;-63
2022/05/03 05:50:32;;;;;;;;;40.75;39.25;;;;;11.64;65.98;101972.19;5068768;28;11506;-64
2022/05/03 05:55:43;;;;;;;;;44.75;40.25;;;;;11.69;66.50;101974.34;5053398;28;11677;-66
2022/05/03 05:58:10;;;;;;;;;38.00;36.50;;;;;11.68;66.72;101978.06;5061162;28;11199;-63
2022/05/03 06:00:37;;;;;;;;;43.75;40.75;;;;;11.70;67.16;101970.63;5069921;28;11869;-62
2022/05/03 06:03:04;;;;;;;;;49.50;40.25;;;;;11.74;67.18;101967.41;5050651;28;11506;-64
2022/05/03 06:05:31;;;;;;;;;39.75;37.75;;;;;11.79;66.48;101970.44;5065236;28;11106;-62
2022/05/03 06:07:58;;;;;;;;;48.75;38.25;;;;;11.80;67.32;101960.50;5068133;28;11207;-64
2022/05/03 06:10:24;;;;;;;;;41.25;38.50;;;;;11.83;67.06;101977.22;5065994;28;11781;-65
2022/05/03 06:12:51;;;;;;;;;47.75;41.75;;;;;11.85;66.42;101969.75;5064276;28;11274;-64
2022/05/03 06:15:20;;;;;;;;;52.75;40.00;;;;;11.85;66.73;101980.56;5065689;28;11286;-64
2022/05/03 06:17:46;;;;;;;;;44.00;38.25;;;;;11.87;66.57;101980.41;5063068;28;11512;-63
2022/05/03 06:20:13;;;;;;;;;46.75;37.25;;;;;11.88;66.77;101971.28;5065690;28;11565;-64
2022/05/03 06:22:40;;;;;;;;;58.75;46.75;;;;;11.88;67.14;101979.38;5052533;28;11077;-66
2022/05/03 06:25:08;;;;;;;;;50.25;40.50;;;;;11.85;67.04;101977.84;5059022;28;11565;-65
2022/05/03 06:27:38;;;;;;;;;40.50;37.25;;;;;11.85;66.93;101975.16;5069514;28;12262;-64
2022/05/03 06:30:06;;;;;;;;;44.25;40.00;;;;;11.92;66.79;101974.47;5070058;28;11187;-63
2022/05/03 06:32:33;;;;;;;;;51.75;39.25;;;;;11.98;66.94;101973.75;5065818;28;11498;-64
2022/05/03 06:34:59;;;;;;;;;43.50;37.00;;;;;11.99;67.41;101978.13;5054915;28;11570;-64
2022/05/03 06:37:26;;;;;;;;;35.25;30.75;;;;;12.06;66.84;101987.22;5062481;28;11371;-64
2022/05/03 06:39:52;;;;;;;;;36.00;32.25;;;;;12.12;66.46;101981.97;5064641;28;10879;-65
2022/05/03 06:42:19;;;;;;;;;44.50;37.00;;;;;12.17;66.50;101980.59;5071038;28;11029;-65
2022/05/03 06:44:47;;;;;;;;;46.25;39.25;;;;;12.10;66.55;101983.97;5069691;28;11124;-64
2022/05/03 06:47:14;;;;;;;;;51.75;38.25;;;;;12.09;66.35;101978.78;5066864;28;11852;-65
2022/05/03 06:49:40;;;;;;;;;39.25;35.25;;;;;12.16;66.51;101981.63;5057237;28;11289;-63
2022/05/03 06:52:07;;;;;;;;;42.50;36.25;;;;;12.27;66.29;101984.72;5059534;28;11130;-68
2022/05/03 06:54:33;;;;;;;;;41.50;37.75;;;;;12.38;65.95;101976.22;5058871;28;11045;-65
2022/05/03 06:57:00;;;;;;;;;53.25;42.75;;;;;12.51;65.88;101981.03;5058768;28;11290;-67
2022/05/03 06:59:26;;;;;;;;;49.25;39.75;;;;;12.58;65.74;101987.41;5057557;28;11875;-66
2022/05/03 07:01:53;;;;;;;;;51.00;39.75;;;;;12.69;65.65;101990.75;5065965;28;11217;-65
2022/05/03 07:04:20;;;;;;;;;38.25;35.25;;;;;12.85;65.29;101983.34;5062354;28;11112;-64
2022/05/03 07:06:46;;;;;;;;;33.00;28.50;;;;;13.04;64.73;101983.84;5059599;28;10836;-65
2022/05/03 07:09:13;;;;;;;;;47.50;38.50;;;;;13.08;64.65;101987.88;5070429;28;10881;-65
2022/05/03 07:11:39;;;;;;;;;45.25;36.75;;;;;13.13;64.15;101992.75;5070450;28;11318;-66
2022/05/03 07:14:06;;;;;;;;;42.00;36.50;;;;;13.13;63.70;101998.16;5067023;28;10872;-65
2022/05/03 07:16:32;;;;;;;;;52.50;42.75;;;;;13.09;63.97;101998.50;5066994;28;11855;-64
2022/05/03 07:24:29;;;;;;;;;46.50;40.25;;;;;12.95;64.92;101998.47;5061779;28;12051;-67
2022/05/03 07:27:01;;;;;;;;;47.00;38.50;;;;;12.95;65.29;101998.47;5069187;28;11329;-64
2022/05/03 07:29:27;;;;;;;;;55.25;42.00;;;;;12.90;65.29;101998.16;5067698;28;11193;-66
2022/05/03 07:31:57;;;;;;;;;58.50;45.25;;;;;12.79;65.08;102011.06;5070947;28;11054;-64
2022/05/03 07:34:26;;;;;;;;;49.75;38.75;;;;;12.78;65.23;102003.16;5067496;28;11483;-61
2022/05/03 07:36:53;;;;;;;;;59.50;45.75;;;;;12.77;66.00;102004.19;5065926;28;11117;-62
2022/05/03 07:39:19;;;;;;;;;56.25;43.75;;;;;12.72;65.80;102003.84;5065143;28;12383;-64
2022/05/03 07:41:46;;;;;;;;;51.75;39.50;;;;;12.67;66.23;102004.41;5069803;28;11500;-64
2022/05/03 07:44:12;;;;;;;;;42.25;37.25;;;;;12.68;66.10;101999.84;5063362;28;11129;-65
2022/05/03 07:46:39;;;;;;;;;56.25;40.00;;;;;12.74;66.13;102007.25;5068655;28;11137;-64
2022/05/03 07:49:05;;;;;;;;;40.50;35.00;;;;;12.78;65.78;102004.00;5067485;28;11072;-62
2022/05/03 07:51:32;;;;;;;;;54.00;42.50;;;;;12.78;65.84;102019.38;5068123;28;10760;-64
2022/05/03 07:54:01;;;;;;;;;53.25;41.50;;;;;12.71;66.07;102007.59;5069387;28;11140;-63
2022/05/03 07:56:28;;;;;;;;;41.25;34.00;;;;;12.73;66.43;102019.91;5064980;28;11110;-66
2022/05/03 07:58:54;;;;;;;;;49.00;40.00;;;;;12.75;66.03;102009.75;5067239;28;10966;-65
2022/05/03 08:01:20;;;;;;;;;39.75;35.50;;;;;12.76;65.82;102011.44;5071336;28;11055;-66
2022/05/03 08:03:47;;;;;;;;;46.50;40.25;;;;;12.77;65.49;102013.13;5068508;28;10962;-64
2022/05/03 08:06:14;;;;;;;;;43.50;38.25;;;;;12.78;65.74;102020.22;5068696;28;11041;-65
2022/05/03 08:08:40;;;;;;;;;43.00;40.25;;;;;12.76;65.96;102019.56;5064089;28;11475;-63
2022/05/03 08:11:06;;;;;;;;;48.75;40.75;;;;;12.78;66.27;102013.97;5065618;28;11965;-64
2022/05/03 08:13:33;;;;;;;;;48.25;39.75;;;;;12.78;66.50;102020.22;5066393;28;11329;-65
2022/05/03 08:16:02;;;;;;;;;52.75;44.00;;;;;12.74;66.54;102027.00;5067687;28;11118;-65
2022/05/03 08:18:28;;;;;;;;;43.50;38.00;;;;;12.68;66.82;102030.41;5068868;28;11291;-63
2022/05/03 08:20:55;;;;;;;;;57.50;46.00;;;;;12.67;66.86;102027.88;5068347;28;10982;-67
2022/05/03 08:23:21;;;;;;;;;56.00;43.75;;;;;12.58;67.11;102037.91;5069358;28;11272;-66
2022/05/03 08:25:48;;;;;;;;;50.00;41.50;;;;;12.49;67.04;102030.88;5061967;28;11280;-64
2022/05/03 08:28:14;;;;;;;;;43.50;36.25;;;;;12.50;67.35;102029.84;5067967;28;11134;-66
2022/05/03 08:30:41;;;;;;;;;55.75;44.25;;;;;12.47;67.29;102033.72;5066751;28;10929;-61
2022/05/03 08:33:08;;;;;;;;;45.00;41.00;;;;;12.43;67.90;102028.88;5068947;28;11559;-64
2022/05/03 08:35:34;;;;;;;;;51.50;41.25;;;;;12.47;68.15;102032.91;5068592;28;11317;-66
2022/05/03 08:43:38;;;;;;;;;57.50;42.25;;;;;12.62;67.31;102040.06;5067400;28;11219;-65
2022/05/03 08:46:08;;;;;;;;;44.75;38.00;;;;;12.68;67.63;102034.97;5067215;28;11493;-64
2022/05/03 08:48:40;;;;;;;;;44.25;40.75;;;;;12.72;67.07;102037.16;5067403;28;10988;-65
2022/05/03 08:51:11;;;;;;;;;59.50;43.00;;;;;12.71;67.28;102040.84;5066743;28;11151;-66
2022/05/03 08:53:40;;;;;;;;;53.50;43.25;;;;;12.63;67.21;102043.59;5066882;28;11303;-67
2022/05/03 08:56:06;;;;;;;;;54.50;39.00;;;;;12.66;67.57;102035.16;5068991;28;11599;-66
2022/05/03 08:58:33;;;;;;;;;59.00;43.00;;;;;12.70;67.71;102044.56;5066629;28;11517;-66
2022/05/03 09:00:59;;;;;;;;;46.75;39.00;;;;;12.79;67.08;102031.84;5067440;28;10953;-64
2022/05/03 09:03:26;;;;;;;;;47.25;41.25;;;;;12.82;67.33;102028.78;5066890;28;11797;-65
2022/05/03 09:05:53;;;;;;;;;56.00;46.00;;;;;12.86;66.46;102035.53;5065421;28;11017;-66
2022/05/03 09:08:22;;;;;;;;;46.50;41.50;;;;;12.89;67.12;102037.03;5067376;28;11369;-66
2022/05/03 09:10:49;;;;;;;;;50.00;41.00;;;;;12.95;66.48;102036.28;5061565;28;11059;-65
2022/05/03 09:13:36;;;;;;;;;44.75;34.00;;;;;13.03;66.45;102039.78;5065745;28;11487;-64
2022/05/03 09:16:11;;;;;;;;;47.75;37.00;;;;;13.09;66.37;102038.22;5068015;28;10897;-63
2022/05/03 09:18:39;;;;;;;;;42.75;38.75;;;;;13.13;66.28;102041.41;5064894;28;11026;-64
2022/05/03 09:24:11;;;;;;;;;42.50;38.25;;;;;13.08;66.19;102037.38;5063062;28;11504;-64
2022/05/03 09:26:38;;;;;;;;;43.25;37.25;;;;;13.10;65.97;102046.16;5067887;28;11262;-64
2022/05/03 09:29:09;;;;;;;;;45.25;38.00;;;;;13.16;66.05;102047.25;5064163;28;10814;-63
2022/05/03 09:31:37;;;;;;;;;45.50;34.00;;;;;13.17;65.76;102048.13;5060230;28;11906;-64
2022/05/03 09:34:19;;;;;;;;;45.25;35.00;;;;;13.13;66.16;102050.34;5058994;28;11039;-63
2022/05/03 09:36:49;;;;;;;;;46.50;40.25;;;;;13.08;65.80;102050.03;5069614;28;10740;-63
2022/05/03 09:39:41;;;;;;;;;34.25;27.50;;;;;12.94;66.27;102061.66;5068975;28;10971;-62
2022/05/03 09:42:09;;;;;;;;;31.50;24.50;;;;;12.78;67.26;102052.63;5066090;28;10577;-65
2022/05/03 09:44:40;;;;;;;;;28.50;24.25;;;;;12.70;68.02;102058.09;5066732;28;10360;-65
2022/05/03 09:47:10;;;;;;;;;16.50;15.75;;;;;12.70;68.56;102058.09;5065081;28;10600;-65
2022/05/03 09:49:39;;;;;;;;;20.50;18.75;;;;;12.68;68.58;102056.56;5065208;28;10321;-64
2022/05/03 09:52:09;;;;;;;;;26.75;21.75;;;;;12.63;68.59;102062.50;5067948;28;10315;-64
2022/05/03 09:54:48;;;;;;;;;24.25;22.00;;;;;12.53;69.25;102053.81;5063965;28;10492;-65
2022/05/03 09:57:26;;;;;;;;;23.00;19.50;;;;;12.38;69.57;102059.94;5063375;28;10557;-63
2022/05/03 09:59:55;;;;;;;;;23.00;21.25;;;;;12.25;70.28;102048.03;5068014;28;10375;-68
2022/05/03 10:02:25;;;;;;;;;15.00;13.25;;;;;12.18;70.58;102055.16;5065373;28;10455;-64
2022/05/03 10:04:53;;;;;;;;;13.50;13.50;;;;;12.18;70.92;102060.56;5063843;28;10334;-65
2022/05/03 10:07:20;;;;;;;;;17.00;15.50;;;;;12.12;70.50;102062.94;5065357;28;10310;-63
2022/05/03 10:09:47;;;;;;;;;15.00;13.50;;;;;12.06;70.90;102066.31;5066726;28;10312;-65
2022/05/03 10:12:14;;;;;;;;;16.75;14.25;;;;;12.01;71.07;102068.72;5065922;28;10234;-64
2022/05/03 10:14:42;;;;;;;;;16.25;13.00;;;;;12.06;71.74;102068.19;5065731;28;10404;-65
2022/05/03 10:20:39;;;;;;;;;17.75;16.75;;;;;12.07;70.89;102068.03;5064820;28;10426;-66
2022/05/03 10:23:19;;;;;;;;;15.50;15.00;;;;;12.08;70.86;102060.75;5059710;28;10357;-62
2022/05/03 10:25:46;;;;;;;;;17.25;14.25;;;;;12.13;71.07;102069.19;5069970;28;10411;-62
2022/05/03 10:28:13;;;;;;;;;18.25;14.50;;;;;12.10;71.05;102069.50;5066346;28;10616;-63
2022/05/03 10:31:05;;;;;;;;;19.75;16.75;;;;;12.05;71.30;102072.75;5068203;28;10293;-63
2022/05/03 10:33:32;;;;;;;;;15.75;13.00;;;;;12.10;71.36;102070.34;5066016;28;10304;-63
2022/05/03 10:36:00;;;;;;;;;14.00;14.00;;;;;12.12;70.59;102072.91;5070814;28;10129;-65
2022/05/03 10:38:38;;;;;;;;;17.25;14.50;;;;;12.11;70.23;102082.84;5064449;28;10214;-67
2022/05/03 10:41:08;;;;;;;;;14.50;11.00;;;;;12.09;70.39;102070.53;5065791;28;10206;-63
2022/05/03 10:43:37;;;;;;;;;14.50;14.00;;;;;12.00;69.42;102079.69;5066577;28;10163;-65
2022/05/03 10:46:12;;;;;;;;;13.75;11.50;;;;;11.86;69.88;102078.53;5066762;28;10078;-64
2022/05/03 10:48:43;;;;;;;;;14.00;10.00;;;;;11.83;70.24;102079.72;5068675;28;10237;-66
2022/05/03 10:51:12;;;;;;;;;12.25;11.25;;;;;11.81;69.73;102080.88;5066693;28;10059;-62
2022/05/03 10:53:43;;;;;;;;;12.25;11.00;;;;;11.80;70.28;102074.63;5066912;28;10150;-63
2022/05/03 10:56:22;;;;;;;;;10.50;10.50;;;;;11.83;70.28;102077.03;5070431;28;9998;-60
2022/05/03 10:59:14;;;;;;;;;9.50;9.25;;;;;11.77;69.77;102074.97;5071695;28;10054;-65
2022/05/03 11:01:55;;;;;;;;;10.25;8.50;;;;;11.78;69.49;102068.56;5070920;28;10173;-65
2022/05/03 11:04:24;;;;;;;;;10.00;8.25;;;;;11.84;69.56;102075.16;5066818;28;10072;-66
2022/05/03 11:06:51;;;;;;;;;16.00;13.75;;;;;11.87;68.58;102069.44;5067099;28;10004;-64
2022/05/03 11:09:44;;;;;;;;;12.50;10.50;;;;;11.87;68.43;102059.47;5070243;28;10218;-64
2022/05/03 11:12:10;;;;;;;;;13.75;9.25;;;;;11.93;69.08;102073.28;5067006;28;10218;-65
2022/05/03 11:14:36;;;;;;;;;19.00;12.75;;;;;11.98;68.85;102066.34;5064168;28;10242;-66
2022/05/03 11:17:03;;;;;;;;;12.00;10.75;;;;;12.00;67.79;102068.88;5065858;28;10325;-65
2022/05/03 11:19:49;;;;;;;;;12.25;10.50;;;;;11.97;67.96;102069.22;5068304;28;10033;-66
2022/05/03 11:22:26;;;;;;;;;15.25;13.00;;;;;11.94;68.31;102066.88;5068134;28;10820;-66
2022/05/03 11:25:04;;;;;;;;;13.00;11.50;;;;;11.91;68.02;102065.38;5064623;28;10238;-63
2022/05/03 11:27:31;;;;;;;;;11.00;8.75;;;;;11.98;67.92;102066.34;5065959;28;10088;-64
2022/05/03 11:30:00;;;;;;;;;16.75;13.25;;;;;12.05;66.90;102064.66;5070267;28;10081;-63
2022/05/03 11:32:30;;;;;;;;;16.50;11.25;;;;;12.06;66.76;102058.22;5065263;28;10138;-67
2022/05/03 11:35:01;;;;;;;;;16.25;11.25;;;;;12.01;67.00;102060.59;5066023;28;10064;-65
2022/05/03 11:37:28;;;;;;;;;12.00;11.00;;;;;12.03;66.64;102058.59;5068310;28;10298;-65
2022/05/03 11:40:03;;;;;;;;;12.75;11.00;;;;;12.04;66.70;102052.16;5064304;28;10285;-66
2022/05/03 11:42:36;;;;;;;;;11.25;11.25;;;;;12.06;66.64;102052.00;5066736;28;10254;-65
2022/05/03 11:45:03;;;;;;;;;15.50;13.50;;;;;12.10;67.23;102048.75;5067457;28;10281;-65
2022/05/03 11:47:29;;;;;;;;;10.00;8.25;;;;;12.15;66.65;102050.09;5062613;28;11097;-64
2022/05/03 11:49:56;;;;;;;;;13.75;12.00;;;;;12.15;66.80;102050.94;5063202;28;10154;-66
2022/05/03 11:57:55;;;;;;;;;9.50;9.50;;;;;12.70;64.60;102046.44;5066367;28;9971;-65
2022/05/03 12:00:27;;;;;;;;;9.50;8.50;;;;;12.63;64.24;102049.84;5068623;28;10082;-67
2022/05/03 12:02:59;;;;;;;;;11.00;10.00;;;;;12.54;64.23;102045.50;5069613;28;10028;-65